Impacts TAF Board
For situational awareness. Not to be used for flight planning purposes.
IDs:

KCLT - Charlotte/Douglas In, NC, US

Issued at 1957 UTC 19 May 2019
Updated at 2051 UTC 19 May 2019
Potential Impact None Slight Moderate High
Time<<20/09Z 20/10Z 20/11Z 20/12Z 20/13Z 20/14Z 20/15Z 20/16Z 20/17Z 20/18Z 20/19Z 20/20Z 20/21Z>>
Type PRVL PRVL PRVL PRVL PRVL PRVL PRVL PRVL PRVL PRVL PRVL PRVL PRVL
VIS >6 >6 >6 >6 >6 >6 >6 >6 >6 >6 >6 >6 >6
CIG -- -- -- -- -- -- -- -- -- -- -- -- 100
Cover FEW FEW FEW FEW FEW SCT SCT SCT SCT SCT SCT SCT BKN
FltCat VFR VFR VFR VFR VFR VFR VFR VFR VFR VFR VFR VFR VFR
WX -- -- -- -- -- -- -- -- -- -- -- -- --
WDir 190 190 190 190 190 210 210 210 210 210 210 210 270
WSpd 8 8 8 8 8 8 8 8 8 8 8 8 5
WGst -- -- -- -- -- -- -- -- -- -- -- -- --
Raw TAF
KCLT 191957Z 1920/2024 18011KT P6SM SCT060
  FM200000 19008KT P6SM FEW250
  FM201400 21008KT P6SM SCT250
  FM202100 27005KT P6SM BKN100


METAR Board
Radar Display
Forecast Discussion
For situational awareness. Not to be used for flight planning purposes.